3IL9 weather

Sugar Creek Farm Airport
Atlanta, Illinois, United States

Public forecast

Using degrees Fahrenheit for public forecast. Weather courtesy of forecast.io.

METAR (pilot weather report)

Closest report is Logan County Airport, 6.8 nm (12.6 km) SSW. Retrieved 2019/06/24 08:35 UTC (11 minutes ago):

KAAA 240835Z AUTO 21003KT 10SM BKN013 21/20 A2968 RMK AO2 T02050201

TAF (pilot weather forecast)

Closest forecast is Central Illinois Regional Airport at Bloomington-Normal, 21.6 nm (40.1 km) NE. Retrieved 2019/06/24 06:22 UTC (2 hours ago):

TAF KBMI 240520Z 2406/2506 18006KT P6SM SCT030 FM241300 21011KT P6SM VCSH BKN015 FM241500 23014G22KT P6SM VCSH BKN020 FM241800 24015G23KT P6SM VCSH BKN045 FM242300 25016G26KT P6SM SCT060